createdAt,value
2023-04-13T00:00:35.550Z,68.60
2023-04-13T00:03:04.346Z,69.20
2023-04-13T00:05:31.452Z,74.13
2023-04-13T00:08:03.480Z,72.00
2023-04-13T00:10:36.818Z,78.23
2023-04-13T00:13:05.311Z,77.10
2023-04-13T00:15:34.754Z,79.57
2023-04-13T00:18:01.703Z,78.37
2023-04-13T00:20:29.001Z,75.03
2023-04-13T00:22:56.177Z,75.30
2023-04-13T00:25:22.833Z,70.20
2023-04-13T00:27:50.360Z,70.93
2023-04-13T00:30:18.024Z,74.90
2023-04-13T00:32:45.497Z,68.27
2023-04-13T00:35:15.672Z,70.53
2023-04-13T00:37:47.155Z,67.77
2023-04-13T00:40:16.557Z,76.97
2023-04-13T00:42:46.764Z,73.83
2023-04-13T00:45:13.743Z,76.20
2023-04-13T00:47:43.459Z,71.93
2023-04-13T00:50:10.264Z,68.20
2023-04-13T00:52:40.164Z,73.53
2023-04-13T00:55:07.797Z,73.50
2023-04-13T00:57:35.220Z,68.53
2023-04-13T01:00:07.876Z,68.23
2023-04-13T01:02:34.477Z,71.77
2023-04-13T01:05:03.157Z,81.77
2023-04-13T01:07:47.246Z,69.87
2023-04-13T01:10:43.541Z,69.37
2023-04-13T01:13:20.687Z,76.07
2023-04-13T01:16:04.278Z,71.67
2023-04-13T01:18:33.337Z,69.50
2023-04-13T01:21:00.203Z,66.83
2023-04-13T01:23:56.725Z,66.43
2023-04-13T01:26:23.961Z,71.60
2023-04-13T01:28:51.400Z,71.17
2023-04-13T01:31:18.047Z,67.83
2023-04-13T01:33:46.863Z,69.40
2023-04-13T01:36:14.494Z,64.90
2023-04-13T01:38:41.141Z,65.03
2023-04-13T01:41:08.699Z,69.17
2023-04-13T01:43:35.830Z,64.33
2023-04-13T01:46:10.174Z,61.50
2023-04-13T01:48:48.409Z,72.50
2023-04-13T01:51:24.507Z,73.37
2023-04-13T01:54:12.898Z,68.67
2023-04-13T01:56:40.096Z,68.43
2023-04-13T01:59:06.662Z,67.97
2023-04-13T02:01:33.197Z,66.27
2023-04-13T02:04:00.673Z,66.70
2023-04-13T02:06:27.521Z,61.60
2023-04-13T02:08:54.429Z,69.50
2023-04-13T02:11:22.073Z,67.40
2023-04-13T02:13:48.610Z,66.90
2023-04-13T02:16:15.821Z,63.17
2023-04-13T02:18:42.414Z,66.77
2023-04-13T02:21:09.669Z,64.17
2023-04-13T02:23:37.102Z,67.93
2023-04-13T02:26:06.809Z,68.87
2023-04-13T02:28:33.408Z,68.40
2023-04-13T02:31:00.185Z,67.37
2023-04-13T02:33:31.645Z,61.53
2023-04-13T02:35:58.986Z,61.87
2023-04-13T02:38:26.658Z,68.77
2023-04-13T02:40:57.255Z,61.47
2023-04-13T02:43:23.788Z,58.13
2023-04-13T02:45:50.292Z,66.23
2023-04-13T02:48:16.861Z,68.07
2023-04-13T02:50:43.300Z,60.20
2023-04-13T02:53:09.785Z,64.30
2023-04-13T02:55:36.629Z,69.87
2023-04-13T02:58:04.584Z,60.33
2023-04-13T03:00:32.697Z,56.67
2023-04-13T03:02:59.454Z,60.40
2023-04-13T03:05:26.731Z,71.50
2023-04-13T03:07:53.232Z,71.77
2023-04-13T03:10:19.848Z,60.23
2023-04-13T03:12:46.318Z,61.67
2023-04-13T03:15:13.090Z,64.83
2023-04-13T03:17:41.501Z,65.40
2023-04-13T03:20:16.929Z,65.80
2023-04-13T03:22:45.381Z,63.87
2023-04-13T03:25:12.546Z,69.30
2023-04-13T03:27:39.149Z,63.07
2023-04-13T03:30:06.406Z,65.40
2023-04-13T03:32:32.899Z,71.33
2023-04-13T03:34:59.425Z,65.40
2023-04-13T03:37:30.212Z,65.97
2023-04-13T03:39:57.927Z,76.53
2023-04-13T03:42:24.404Z,73.57
2023-04-13T03:44:51.166Z,64.83
2023-04-13T03:47:17.816Z,63.53
2023-04-13T03:49:44.295Z,62.57
2023-04-13T03:52:10.772Z,83.20
2023-04-13T03:54:37.295Z,65.90
2023-04-13T03:57:04.877Z,75.40
2023-04-13T03:59:31.568Z,70.07
2023-04-13T04:01:58.455Z,76.87
2023-04-13T04:04:25.361Z,66.10
2023-04-13T04:06:52.101Z,66.40
2023-04-13T04:09:18.637Z,76.70
2023-04-13T04:11:45.719Z,64.43
2023-04-13T04:14:12.203Z,63.10
2023-04-13T04:16:38.762Z,64.17
2023-04-13T04:19:05.282Z,61.73
2023-04-13T04:21:36.078Z,62.10
2023-04-13T04:24:06.354Z,69.03
2023-04-13T04:26:33.298Z,64.67
2023-04-13T04:29:05.039Z,67.17
2023-04-13T04:31:36.675Z,58.77
2023-04-13T04:34:05.112Z,65.50
2023-04-13T04:36:31.614Z,57.63
2023-04-13T04:39:03.182Z,71.60
2023-04-13T04:41:31.321Z,60.67
2023-04-13T04:44:03.561Z,69.60
2023-04-13T04:46:30.132Z,61.50
2023-04-13T04:49:00.853Z,57.37
2023-04-13T04:51:28.187Z,57.67
2023-04-13T04:53:54.843Z,60.70
2023-04-13T04:56:21.756Z,58.83
2023-04-13T04:58:48.610Z,61.63
2023-04-13T05:01:15.260Z,51.30
2023-04-13T05:03:42.218Z,62.77
2023-04-13T05:06:09.424Z,60.93
2023-04-13T05:08:36.020Z,48.63
2023-04-13T05:11:05.969Z,51.73
2023-04-13T05:13:32.687Z,54.30
2023-04-13T05:15:59.355Z,47.97
2023-04-13T05:18:26.156Z,49.57
2023-04-13T05:20:52.935Z,45.50
2023-04-13T05:23:19.588Z,51.37
2023-04-13T05:25:46.237Z,44.80
2023-04-13T05:28:13.146Z,49.30
2023-04-13T05:30:39.724Z,46.47
2023-04-13T05:33:06.674Z,45.17
2023-04-13T05:35:33.708Z,41.00
2023-04-13T05:38:00.786Z,46.53
2023-04-13T05:40:28.987Z,43.83
2023-04-13T05:42:56.393Z,45.00
2023-04-13T05:45:23.026Z,43.83
2023-04-13T05:47:50.322Z,50.60
2023-04-13T05:50:17.212Z,43.10
2023-04-13T05:52:43.663Z,38.63
2023-04-13T05:55:11.753Z,35.20
2023-04-13T05:57:38.412Z,40.10
2023-04-13T06:00:08.038Z,40.37
2023-04-13T06:02:37.151Z,39.87
2023-04-13T06:05:05.131Z,40.20
2023-04-13T06:07:31.795Z,35.17
2023-04-13T06:10:00.767Z,35.30
2023-04-13T06:12:27.805Z,34.00
2023-04-13T06:14:54.499Z,32.13
2023-04-13T06:17:21.286Z,30.80
2023-04-13T06:19:48.507Z,28.43
2023-04-13T06:22:14.980Z,28.97
2023-04-13T06:24:41.835Z,31.07
2023-04-13T06:27:08.583Z,25.37
2023-04-13T06:29:35.972Z,27.23
2023-04-13T06:32:03.353Z,24.93
2023-04-13T06:34:30.743Z,22.67
2023-04-13T06:36:57.630Z,20.60
2023-04-13T06:39:25.545Z,21.83
2023-04-13T06:41:54.053Z,20.67
2023-04-13T06:44:20.864Z,19.90
2023-04-13T06:46:47.746Z,22.57
2023-04-13T06:49:14.545Z,24.47
2023-04-13T06:51:41.032Z,20.70
2023-04-13T06:54:07.648Z,23.97
2023-04-13T06:56:34.319Z,20.53
2023-04-13T06:59:03.432Z,20.77
2023-04-13T07:01:30.524Z,26.90
2023-04-13T07:03:57.478Z,23.97
2023-04-13T07:06:24.342Z,18.73
2023-04-13T07:08:50.988Z,18.93
2023-04-13T07:11:17.696Z,24.47
2023-04-13T07:13:44.343Z,16.07
2023-04-13T07:16:12.441Z,21.30
2023-04-13T07:18:39.041Z,19.47
2023-04-13T07:21:06.149Z,20.80
2023-04-13T07:23:33.794Z,21.40
2023-04-13T07:26:01.483Z,17.60
2023-04-13T07:28:28.400Z,23.20
2023-04-13T07:30:55.110Z,21.13
2023-04-13T07:33:21.841Z,24.53
2023-04-13T07:35:50.414Z,26.60
2023-04-13T07:38:17.150Z,23.83
2023-04-13T07:40:44.003Z,20.10
2023-04-13T07:43:11.060Z,21.13
2023-04-13T07:45:37.761Z,20.88
2023-04-13T07:48:05.931Z,24.73
2023-04-13T07:50:32.952Z,20.40
2023-04-13T07:52:59.666Z,24.27
2023-04-13T07:55:26.940Z,20.27
2023-04-13T07:57:53.542Z,24.90
2023-04-13T08:00:23.046Z,21.77
2023-04-13T08:02:50.413Z,25.47
2023-04-13T08:05:17.930Z,22.13
2023-04-13T08:07:46.996Z,23.93
2023-04-13T08:10:13.551Z,25.57
2023-04-13T08:12:40.154Z,22.97
2023-04-13T08:15:07.688Z,20.80
2023-04-13T08:17:36.032Z,19.43
2023-04-13T08:20:06.169Z,27.10
2023-04-13T08:22:33.073Z,21.20
2023-04-13T08:24:59.763Z,23.03
2023-04-13T08:27:26.452Z,24.37
2023-04-13T08:29:56.995Z,21.03
2023-04-13T08:32:23.743Z,23.23
2023-04-13T08:34:50.538Z,21.13
2023-04-13T08:37:17.405Z,18.27
2023-04-13T08:39:44.037Z,19.80
2023-04-13T08:42:10.695Z,18.47
2023-04-13T08:44:40.238Z,25.17
2023-04-13T08:47:07.519Z,21.10
2023-04-13T08:49:34.798Z,18.63
2023-04-13T08:52:05.563Z,19.53
2023-04-13T08:54:33.070Z,18.87
2023-04-13T08:56:59.746Z,17.03
2023-04-13T08:59:28.433Z,22.43
2023-04-13T09:01:56.157Z,18.07
2023-04-13T09:04:25.408Z,21.30
2023-04-13T09:06:52.818Z,19.27
2023-04-13T09:09:20.708Z,19.70
2023-04-13T09:11:49.932Z,14.83
2023-04-13T09:14:22.221Z,16.50
2023-04-13T09:16:50.076Z,14.30
2023-04-13T09:19:17.952Z,19.60
2023-04-13T09:21:45.466Z,17.47
2023-04-13T09:24:12.904Z,17.53
2023-04-13T09:26:43.857Z,19.40
2023-04-13T09:29:14.287Z,21.13
2023-04-13T09:31:43.546Z,16.57
2023-04-13T09:34:12.139Z,18.33
2023-04-13T09:36:49.584Z,20.00
2023-04-13T09:39:28.566Z,17.53
2023-04-13T09:41:56.105Z,17.63
2023-04-13T09:44:34.681Z,22.57
2023-04-13T09:47:05.876Z,14.60
2023-04-13T09:49:42.736Z,18.43
2023-04-13T09:52:23.711Z,16.40
2023-04-13T09:54:59.888Z,15.80
2023-04-13T09:57:30.883Z,20.10
2023-04-13T10:00:01.509Z,16.07
2023-04-13T10:02:28.658Z,15.83
2023-04-13T10:04:56.167Z,20.07
2023-04-13T10:07:26.925Z,15.80
2023-04-13T10:09:54.135Z,14.10
2023-04-13T10:12:21.074Z,14.47
2023-04-13T10:14:48.907Z,12.17
2023-04-13T10:17:42.681Z,12.67
2023-04-13T10:20:13.792Z,13.17
2023-04-13T10:22:43.434Z,15.23
2023-04-13T10:25:25.690Z,13.80
2023-04-13T10:28:00.160Z,15.67
2023-04-13T10:30:27.791Z,11.53
2023-04-13T10:33:06.412Z,12.73
2023-04-13T10:35:37.365Z,13.03
2023-04-13T10:38:05.106Z,12.77
2023-04-13T10:40:52.260Z,14.90
2023-04-13T10:43:29.233Z,12.63
2023-04-13T10:46:09.569Z,13.27
2023-04-13T10:48:36.592Z,11.43
2023-04-13T10:51:04.509Z,10.80
2023-04-13T10:53:32.874Z,11.97
2023-04-13T10:56:00.289Z,13.63
2023-04-13T10:58:29.955Z,11.83
2023-04-13T11:00:58.739Z,11.43
2023-04-13T11:03:29.036Z,11.47
2023-04-13T11:05:58.237Z,10.70
2023-04-13T11:08:25.281Z,12.27
2023-04-13T11:10:53.039Z,17.20
2023-04-13T11:13:19.895Z,9.43
2023-04-13T11:15:47.331Z,21.60
2023-04-13T11:18:13.880Z,15.33
2023-04-13T11:20:41.873Z,22.33
2023-04-13T11:23:19.023Z,7.87
2023-04-13T11:25:59.974Z,13.03
2023-04-13T11:28:40.146Z,11.03
2023-04-13T11:31:07.653Z,11.30
2023-04-13T11:33:37.222Z,11.23
2023-04-13T11:36:06.515Z,10.30
2023-04-13T11:38:33.191Z,7.43
2023-04-13T11:41:15.900Z,10.33
2023-04-13T11:43:46.748Z,9.33
2023-04-13T11:46:16.201Z,13.87
2023-04-13T11:48:43.478Z,11.40
2023-04-13T11:51:11.568Z,8.27
2023-04-13T11:53:39.455Z,8.53
2023-04-13T11:56:07.066Z,10.37
2023-04-13T11:58:33.818Z,10.57
2023-04-13T12:01:12.784Z,12.43
2023-04-13T12:03:56.743Z,13.00
2023-04-13T12:06:29.075Z,11.83
2023-04-13T12:09:10.086Z,11.13
2023-04-13T12:11:42.739Z,11.80
2023-04-13T12:14:49.755Z,12.50
2023-04-13T12:19:46.730Z,11.43
2023-04-13T12:22:14.949Z,12.97
2023-04-13T12:24:42.924Z,13.80
2023-04-13T12:27:18.254Z,11.77
2023-04-13T12:29:46.045Z,15.40
2023-04-13T12:32:19.732Z,13.43
2023-04-13T12:34:47.437Z,9.57
2023-04-13T12:37:14.058Z,11.17
2023-04-13T12:39:42.460Z,11.07
2023-04-13T12:42:10.004Z,21.00
2023-04-13T12:44:36.991Z,11.53
2023-04-13T12:47:06.733Z,11.03
2023-04-13T12:49:33.764Z,11.27
2023-04-13T12:52:00.983Z,7.57
2023-04-13T12:54:28.791Z,6.47
2023-04-13T12:56:57.093Z,6.77
2023-04-13T12:59:24.230Z,8.70
2023-04-13T13:01:51.352Z,7.00
2023-04-13T13:04:17.984Z,11.43
2023-04-13T13:06:44.621Z,5.33
2023-04-13T13:09:11.324Z,8.23
2023-04-13T13:11:37.972Z,9.17
2023-04-13T13:14:05.072Z,11.57
2023-04-13T13:16:32.673Z,11.40
2023-04-13T13:18:59.583Z,9.15
2023-04-13T13:21:26.589Z,8.77
2023-04-13T13:23:53.435Z,8.70
2023-04-13T13:26:24.546Z,9.07
2023-04-13T13:28:54.043Z,7.37
2023-04-13T13:31:20.896Z,7.27
2023-04-13T13:33:47.568Z,9.43
2023-04-13T13:36:15.079Z,8.27
2023-04-13T13:38:43.186Z,9.10
2023-04-13T13:41:09.995Z,15.10
2023-04-13T13:43:37.831Z,15.23
2023-04-13T13:46:08.593Z,11.33
2023-04-13T13:48:35.466Z,9.93
2023-04-13T13:51:04.464Z,11.77
2023-04-13T13:53:32.428Z,9.23
2023-04-13T13:55:59.122Z,7.47
2023-04-13T13:58:25.683Z,11.03
2023-04-13T14:00:52.326Z,8.37
2023-04-13T14:03:19.091Z,9.60
2023-04-13T14:05:46.068Z,8.67
2023-04-13T14:08:13.172Z,13.47
2023-04-13T14:10:40.204Z,6.97
2023-04-13T14:13:07.326Z,10.17
2023-04-13T14:15:33.900Z,6.17
2023-04-13T14:18:09.198Z,7.50
2023-04-13T14:20:39.184Z,9.53
2023-04-13T14:23:06.476Z,8.03
2023-04-13T14:25:33.089Z,10.67
2023-04-13T14:28:00.005Z,8.80
2023-04-13T14:30:28.119Z,6.00
2023-04-13T14:32:55.583Z,5.97
2023-04-13T14:35:22.551Z,7.90
2023-04-13T14:37:49.599Z,7.53
2023-04-13T14:40:17.067Z,8.13
2023-04-13T14:42:44.444Z,6.43
2023-04-13T14:45:12.407Z,7.33
2023-04-13T14:47:40.127Z,13.83
2023-04-13T14:50:08.592Z,5.83
2023-04-13T14:52:35.592Z,12.40
2023-04-13T14:55:03.651Z,5.77
2023-04-13T14:57:31.179Z,5.87
2023-04-13T14:59:57.928Z,14.47
2023-04-13T15:02:27.440Z,4.70
2023-04-13T15:04:54.737Z,7.00
2023-04-13T15:07:21.962Z,5.93
2023-04-13T15:09:49.014Z,11.03
2023-04-13T15:12:15.759Z,5.80
2023-04-13T15:14:46.610Z,4.13
2023-04-13T15:17:13.493Z,5.53
2023-04-13T15:19:40.284Z,5.27
2023-04-13T15:22:07.291Z,7.20
2023-04-13T15:24:33.882Z,6.23
2023-04-13T15:27:00.791Z,6.73
2023-04-13T15:29:27.778Z,7.60
2023-04-13T15:31:54.640Z,4.73
2023-04-13T15:34:21.342Z,7.47
2023-04-13T15:36:48.110Z,9.20
2023-04-13T15:39:14.821Z,4.90
2023-04-13T15:41:41.423Z,6.17
2023-04-13T15:44:08.238Z,5.33
2023-04-13T15:46:35.021Z,6.57
2023-04-13T15:49:02.069Z,8.97
2023-04-13T15:51:29.482Z,5.00
2023-04-13T15:53:56.190Z,5.13
2023-04-13T15:56:23.124Z,6.43
2023-04-13T15:58:50.045Z,6.70
2023-04-13T16:01:16.722Z,6.33
2023-04-13T16:03:43.787Z,6.10
2023-04-13T16:06:10.939Z,9.30
2023-04-13T16:08:37.898Z,6.40
2023-04-13T16:11:04.909Z,6.23
2023-04-13T16:13:47.060Z,7.70
2023-04-13T16:16:15.907Z,7.13
2023-04-13T16:18:42.430Z,6.00
2023-04-13T16:21:10.935Z,8.07
2023-04-13T16:23:37.775Z,5.23
2023-04-13T16:26:05.067Z,6.70
2023-04-13T16:28:31.706Z,3.70
2023-04-13T16:30:59.149Z,5.87
2023-04-13T16:33:26.135Z,10.20
2023-04-13T16:35:52.709Z,5.10
2023-04-13T16:38:19.279Z,7.43
2023-04-13T16:40:45.878Z,7.87
2023-04-13T16:43:12.895Z,6.67
2023-04-13T16:45:39.716Z,7.90
2023-04-13T16:48:06.570Z,4.90
2023-04-13T16:50:33.319Z,6.17
2023-04-13T16:53:00.091Z,7.80
2023-04-13T16:55:28.610Z,6.70
2023-04-13T16:57:56.258Z,8.03
2023-04-13T17:00:23.338Z,10.30
2023-04-13T17:02:50.152Z,5.77
2023-04-13T17:05:16.969Z,9.23
2023-04-13T17:07:44.715Z,5.67
2023-04-13T17:10:12.906Z,9.67
2023-04-13T17:12:40.571Z,6.90
2023-04-13T17:15:08.001Z,10.70
2023-04-13T17:17:34.778Z,8.43
2023-04-13T17:20:01.879Z,8.03
2023-04-13T17:22:28.668Z,14.80
2023-04-13T17:24:55.678Z,8.20
2023-04-13T17:27:22.380Z,7.03
2023-04-13T17:29:50.049Z,7.93
2023-04-13T17:32:16.791Z,9.23
2023-04-13T17:34:44.748Z,8.10
2023-04-13T17:37:11.893Z,9.90
2023-04-13T17:39:42.209Z,12.00
2023-04-13T17:42:09.552Z,8.77
2023-04-13T17:44:36.545Z,13.77
2023-04-13T17:47:04.817Z,12.47
2023-04-13T17:49:31.374Z,14.57
2023-04-13T17:51:59.921Z,11.13
2023-04-13T17:54:27.506Z,18.87
2023-04-13T17:56:54.798Z,14.07
2023-04-13T17:59:22.138Z,16.07
2023-04-13T18:01:51.594Z,15.33
2023-04-13T18:04:19.234Z,10.40
2023-04-13T18:06:45.980Z,12.53
2023-04-13T18:09:15.921Z,12.30
2023-04-13T18:11:42.597Z,18.97
2023-04-13T18:14:12.453Z,17.10
2023-04-13T18:16:39.331Z,20.27
2023-04-13T18:19:06.266Z,12.53
2023-04-13T18:21:33.303Z,15.37
2023-04-13T18:24:03.693Z,14.98
2023-04-13T18:26:30.589Z,15.70
2023-04-13T18:28:57.180Z,17.50
2023-04-13T18:31:24.023Z,20.90
2023-04-13T18:33:50.665Z,14.77
2023-04-13T18:36:18.448Z,18.97
2023-04-13T18:38:46.025Z,17.47
2023-04-13T18:41:13.017Z,17.63
2023-04-13T18:43:39.949Z,15.97
2023-04-13T18:46:07.976Z,20.90
2023-04-13T18:48:35.308Z,17.83
2023-04-13T18:51:04.010Z,22.03
2023-04-13T18:53:31.039Z,16.00
2023-04-13T18:55:58.401Z,19.90
2023-04-13T18:58:25.541Z,20.07
2023-04-13T19:00:52.119Z,18.70
2023-04-13T19:03:18.938Z,20.13
2023-04-13T19:05:46.134Z,17.13
2023-04-13T19:08:13.505Z,18.23
2023-04-13T19:10:42.557Z,22.17
2023-04-13T19:13:09.500Z,22.20
2023-04-13T19:15:36.441Z,32.47
2023-04-13T19:18:04.777Z,18.53
2023-04-13T19:20:31.593Z,36.53
2023-04-13T19:22:58.402Z,20.03
2023-04-13T19:25:25.061Z,24.10
2023-04-13T19:27:51.656Z,25.80
2023-04-13T19:30:21.450Z,23.33
2023-04-13T19:32:49.223Z,22.33
2023-04-13T19:35:16.440Z,28.33
2023-04-13T19:37:43.222Z,29.73
2023-04-13T19:40:10.273Z,21.83
2023-04-13T19:42:37.118Z,31.00
2023-04-13T19:45:04.599Z,23.13
2023-04-13T19:47:31.637Z,21.60
2023-04-13T19:49:58.182Z,21.00
2023-04-13T19:52:25.300Z,26.20
2023-04-13T19:54:52.094Z,22.93
2023-04-13T19:57:18.847Z,27.70
2023-04-13T19:59:45.840Z,25.13
2023-04-13T20:02:12.576Z,23.33
2023-04-13T20:04:40.102Z,31.40
2023-04-13T20:07:07.135Z,20.50
2023-04-13T20:09:33.911Z,24.63
2023-04-13T20:12:00.881Z,20.73
2023-04-13T20:14:27.438Z,23.20
2023-04-13T20:16:54.082Z,24.60
2023-04-13T20:19:21.215Z,23.83
2023-04-13T20:21:47.886Z,19.53
2023-04-13T20:24:14.608Z,25.47
2023-04-13T20:26:42.129Z,23.00
2023-04-13T20:29:08.675Z,18.63
2023-04-13T20:31:35.861Z,18.67
2023-04-13T20:34:04.412Z,21.47
2023-04-13T20:36:31.317Z,20.40
2023-04-13T20:38:59.450Z,20.80
2023-04-13T20:41:27.155Z,18.10
2023-04-13T20:43:53.660Z,20.77
2023-04-13T20:46:21.741Z,19.07
2023-04-13T20:48:51.540Z,18.40
2023-04-13T20:51:19.280Z,20.07
2023-04-13T20:53:46.004Z,17.47
2023-04-13T20:56:12.881Z,17.70
2023-04-13T20:58:40.785Z,21.27
2023-04-13T21:01:07.644Z,19.33
2023-04-13T21:03:34.931Z,24.33
2023-04-13T21:06:01.552Z,24.83
2023-04-13T21:08:28.210Z,17.67
2023-04-13T21:10:55.071Z,18.53
2023-04-13T21:13:22.149Z,18.13
2023-04-13T21:15:48.662Z,22.37
2023-04-13T21:18:15.394Z,19.97
2023-04-13T21:20:43.391Z,15.63
2023-04-13T21:23:10.308Z,21.90
2023-04-13T21:25:37.334Z,20.37
2023-04-13T21:28:04.840Z,22.33
2023-04-13T21:30:31.394Z,15.07
2023-04-13T21:32:57.990Z,16.57
2023-04-13T21:35:24.537Z,25.47
2023-04-13T21:37:51.178Z,16.30
2023-04-13T21:40:18.373Z,15.43
2023-04-13T21:42:45.060Z,18.27
2023-04-13T21:45:11.757Z,18.73
2023-04-13T21:47:38.474Z,19.23
2023-04-13T21:50:06.198Z,22.70
2023-04-13T21:52:33.013Z,17.50
2023-04-13T21:54:59.917Z,16.90
2023-04-13T21:57:26.891Z,16.13
2023-04-13T21:59:54.794Z,15.17
2023-04-13T22:02:21.476Z,17.50
2023-04-13T22:04:48.084Z,15.10
2023-04-13T22:07:14.816Z,18.50
2023-04-13T22:09:41.685Z,16.37
2023-04-13T22:12:10.739Z,21.47
2023-04-13T22:14:37.257Z,23.13
2023-04-13T22:17:04.288Z,17.00
2023-04-13T22:19:31.352Z,19.07
2023-04-13T22:21:57.885Z,16.57
2023-04-13T22:24:24.433Z,16.40
2023-04-13T22:26:51.696Z,17.33
2023-04-13T22:29:18.212Z,16.70
2023-04-13T22:31:44.867Z,17.93
2023-04-13T22:34:11.461Z,18.27
2023-04-13T22:36:38.000Z,18.77
2023-04-13T22:39:04.512Z,14.70
2023-04-13T22:41:31.018Z,17.93
2023-04-13T22:43:57.536Z,16.23
2023-04-13T22:46:24.196Z,16.83
2023-04-13T22:48:51.309Z,13.97
2023-04-13T22:51:17.833Z,14.50
2023-04-13T22:53:44.313Z,14.73
2023-04-13T22:56:10.875Z,17.80
2023-04-13T22:58:37.434Z,13.87
2023-04-13T23:01:04.713Z,13.37
2023-04-13T23:03:31.488Z,13.53
2023-04-13T23:05:58.152Z,16.90
2023-04-13T23:08:24.624Z,16.27
2023-04-13T23:10:51.202Z,15.47
2023-04-13T23:13:17.706Z,17.20
2023-04-13T23:15:44.289Z,15.47
2023-04-13T23:18:11.065Z,14.23
2023-04-13T23:20:37.647Z,15.77
2023-04-13T23:23:04.348Z,15.13
2023-04-13T23:25:30.917Z,14.73
2023-04-13T23:27:57.468Z,13.47
2023-04-13T23:30:24.000Z,13.37
2023-04-13T23:32:51.019Z,12.90
2023-04-13T23:35:17.648Z,18.47
2023-04-13T23:37:45.354Z,13.07
2023-04-13T23:40:12.281Z,12.93
2023-04-13T23:42:38.857Z,14.57
2023-04-13T23:45:05.961Z,12.97
2023-04-13T23:47:32.493Z,12.70
2023-04-13T23:49:59.170Z,11.13
2023-04-13T23:52:25.657Z,12.77
2023-04-13T23:54:52.119Z,13.37
2023-04-13T23:57:18.596Z,14.90
2023-04-13T23:59:45.105Z,12.33
